Time;durP1;ratioP1;P1;durP2;ratioP2;P2;SDS_P1;SDS_P2;PMS_P1;PMS_P2;Temp;Humidity;BMP_temperature;BMP_pressure;BME280_temperature;BME280_humidity;BME280_pressure;Samples;Min_cycle;Max_cycle;Signal;HPM_P1;HPM_P2
2022/11/10 00:00:19;;;;;;;9.68;1.67;;;;;;;12.49;94.42;100815.63;8354660;28;20041;-48
2022/11/10 00:04:40;;;;;;;16.35;1.80;;;;;;;12.54;93.90;100818.78;8356292;28;20037;-48
2022/11/10 00:09:00;;;;;;;7.78;1.50;;;;;;;12.56;93.99;100823.03;8355928;28;20041;-48
2022/11/10 00:13:20;;;;;;;12.63;1.63;;;;;;;12.51;93.88;100825.38;8356094;28;20075;-50
2022/11/10 00:17:41;;;;;;;8.02;1.40;;;;;;;12.49;94.32;100826.50;8354034;28;20036;-48
2022/11/10 00:22:01;;;;;;;12.50;1.92;;;;;;;12.45;94.41;100835.91;8355445;28;20048;-50
2022/11/10 00:26:22;;;;;;;14.02;2.00;;;;;;;12.39;94.87;100837.38;8355839;28;20048;-52
2022/11/10 00:30:42;;;;;;;4.65;1.40;;;;;;;12.34;95.21;100838.78;8355307;28;20056;-48
2022/11/10 00:35:03;;;;;;;5.50;1.45;;;;;;;12.28;95.57;100828.50;8355271;28;20045;-50
2022/11/10 00:39:24;;;;;;;8.73;1.40;;;;;;;12.23;95.81;100836.22;8354247;28;20048;-48
2022/11/10 00:43:44;;;;;;;9.20;1.35;;;;;;;12.19;96.60;100841.06;8351235;28;20064;-48
2022/11/10 00:48:05;;;;;;;10.10;1.40;;;;;;;12.21;96.58;100843.63;8354270;28;20033;-48
2022/11/10 00:52:25;;;;;;;10.70;2.00;;;;;;;12.16;96.79;100852.19;8353846;28;20565;-48
2022/11/10 00:56:45;;;;;;;14.35;2.33;;;;;;;12.17;97.13;100859.31;8353823;28;20056;-48
2022/11/10 01:01:06;;;;;;;13.10;1.70;;;;;;;12.14;97.36;100861.47;8355117;28;20501;-48
2022/11/10 01:05:28;;;;;;;10.18;2.20;;;;;;;12.08;97.77;100867.47;8352887;28;20119;-52
2022/11/10 01:09:48;;;;;;;16.20;1.90;;;;;;;12.06;98.12;100866.75;8353298;28;20075;-49
2022/11/10 01:14:08;;;;;;;14.43;1.98;;;;;;;11.93;98.63;100874.28;8354927;28;20051;-48
2022/11/10 01:18:29;;;;;;;17.63;2.10;;;;;;;11.88;99.23;100875.59;8338896;28;20465;-48
2022/11/10 01:22:49;;;;;;;10.93;1.85;;;;;;;11.84;100.00;100873.28;8353039;28;20037;-51
2022/11/10 01:27:10;;;;;;;7.60;2.00;;;;;;;11.84;100.00;100879.53;8354277;28;20033;-50
2022/11/10 01:31:30;;;;;;;16.60;2.42;;;;;;;11.85;100.00;100892.13;8354063;28;20045;-49
2022/11/10 01:35:51;;;;;;;12.73;1.98;;;;;;;11.82;100.00;100895.09;8333520;28;20499;-50
2022/11/10 01:40:12;;;;;;;16.15;2.28;;;;;;;11.69;100.00;100889.06;8320995;28;20321;-48
2022/11/10 01:44:34;;;;;;;8.80;1.67;;;;;;;11.71;100.00;100889.78;8319831;28;20460;-51
2022/11/10 01:48:59;;;;;;;18.88;2.15;;;;;;;11.75;100.00;100896.63;8320373;28;20033;-48
2022/11/10 01:53:26;;;;;;;12.82;2.63;;;;;;;11.79;100.00;100905.34;8321338;28;20053;-51
2022/11/10 01:57:46;;;;;;;17.55;2.05;;;;;;;11.86;100.00;100898.38;8326093;28;20725;-48
2022/11/10 02:02:27;;;;;;;9.02;1.48;;;;;;;11.93;99.80;100908.50;8353427;28;20033;-49
2022/11/10 02:06:49;;;;;;;14.65;1.58;;;;;;;11.92;99.61;100907.81;8352931;28;20049;-49
2022/11/10 02:11:10;;;;;;;11.25;1.67;;;;;;;11.96;99.85;100925.50;8353314;28;20040;-50
2022/11/10 02:15:30;;;;;;;14.00;2.13;;;;;;;12.00;99.67;100916.09;8353424;28;20135;-49
2022/11/10 02:19:51;;;;;;;14.35;1.80;;;;;;;11.92;99.72;100929.50;8353921;28;20045;-50
2022/11/10 02:24:11;;;;;;;13.18;1.80;;;;;;;11.80;100.00;100931.44;8353370;28;20492;-48
2022/11/10 02:28:34;;;;;;;14.52;1.80;;;;;;;11.63;100.00;100930.25;8352661;28;20041;-48
2022/11/10 02:32:54;;;;;;;8.25;1.17;;;;;;;11.40;100.00;100939.53;8351310;28;20041;-48
2022/11/10 02:37:15;;;;;;;8.90;1.70;;;;;;;11.44;100.00;100946.38;8343182;28;20033;-52
2022/11/10 02:41:36;;;;;;;16.27;2.25;;;;;;;11.23;100.00;100952.84;8358592;28;20059;-51
2022/11/10 02:45:56;;;;;;;12.93;1.98;;;;;;;11.03;100.00;100946.44;8357798;28;20048;-48
2022/11/10 02:50:17;;;;;;;15.65;2.17;;;;;;;11.12;100.00;100940.25;8358343;28;20124;-48
2022/11/10 02:54:37;;;;;;;12.85;2.10;;;;;;;11.30;100.00;100944.06;8358889;28;20128;-49
2022/11/10 02:58:58;;;;;;;16.02;2.40;;;;;;;11.36;100.00;100943.50;8357598;28;20509;-48
2022/11/10 03:03:18;;;;;;;9.25;1.95;;;;;;;11.38;100.00;100956.91;8358424;28;20095;-48
2022/11/10 03:07:39;;;;;;;14.45;1.58;;;;;;;11.39;100.00;100959.50;8355492;28;20128;-48
2022/11/10 03:11:59;;;;;;;14.63;2.05;;;;;;;11.45;100.00;100969.78;8357258;28;20112;-48
2022/11/10 03:16:20;;;;;;;16.92;1.95;;;;;;;11.54;100.00;100978.94;8358622;28;20036;-50
2022/11/10 03:20:40;;;;;;;16.95;2.78;;;;;;;11.58;100.00;100989.34;8356976;28;20112;-54
2022/11/10 03:25:00;;;;;;;16.08;2.38;;;;;;;11.59;100.00;100996.47;8355635;28;20145;-49
2022/11/10 03:29:21;;;;;;;15.55;2.22;;;;;;;11.55;100.00;101003.16;8356530;28;20048;-50
2022/11/10 03:33:41;;;;;;;14.40;2.13;;;;;;;11.47;100.00;100994.84;8356705;28;20037;-50
2022/11/10 03:38:02;;;;;;;12.82;1.98;;;;;;;11.45;100.00;100988.72;8356568;28;20424;-51
2022/11/10 03:42:23;;;;;;;17.25;1.98;;;;;;;11.43;100.00;100990.69;8356654;28;20037;-50
2022/11/10 03:46:43;;;;;;;15.32;1.83;;;;;;;11.57;100.00;100995.78;8354589;28;20116;-51
2022/11/10 03:51:04;;;;;;;20.58;2.33;;;;;;;11.68;100.00;101011.06;8357282;28;20072;-49
2022/11/10 03:55:24;;;;;;;19.83;2.20;;;;;;;11.74;100.00;101016.81;8356159;28;20045;-51
2022/11/10 03:59:44;;;;;;;18.00;2.35;;;;;;;11.67;100.00;101022.91;8356218;28;20036;-51
2022/11/10 04:08:57;;;;;;;14.80;1.65;;;;;;;11.58;100.00;101021.84;8356109;28;20064;-50
2022/11/10 04:09:01;;;;;;;21.73;2.28;;;;;;;11.57;100.00;101021.97;8349905;28;20524;-50
2022/11/10 04:18:33;;;;;;;13.73;2.38;;;;;;;11.60;100.00;101041.53;8355975;28;20422;-50
2022/11/10 04:23:39;;;;;;;15.65;2.92;;;;;;;11.48;100.00;101045.31;8355696;28;20036;-50
2022/11/10 04:27:22;;;;;;;22.10;2.20;;;;;;;11.33;100.00;101054.75;8355559;28;20040;-50
2022/11/10 04:31:43;;;;;;;10.82;1.98;;;;;;;11.18;100.00;101069.63;8354944;28;20422;-50
2022/11/10 04:36:03;;;;;;;17.85;1.75;;;;;;;11.01;100.00;101072.88;8355787;28;20041;-50
2022/11/10 04:40:24;;;;;;;17.58;2.08;;;;;;;10.94;100.00;101071.69;8353958;28;20044;-49
2022/11/10 04:44:44;;;;;;;17.58;2.40;;;;;;;10.97;100.00;101078.69;8352593;28;20388;-49
2022/11/10 04:49:06;;;;;;;13.20;2.40;;;;;;;10.88;100.00;101083.03;8353933;28;20494;-52
2022/11/10 04:53:27;;;;;;;17.45;2.30;;;;;;;10.91;100.00;101088.19;8353658;28;20052;-53
2022/11/10 04:57:47;;;;;;;17.23;2.15;;;;;;;10.96;100.00;101091.38;8353594;28;20041;-53
2022/11/10 05:02:07;;;;;;;20.33;2.03;;;;;;;10.89;100.00;101090.16;8347688;28;20410;-50
2022/11/10 05:06:28;;;;;;;19.00;2.70;;;;;;;10.91;100.00;101104.41;8322239;28;20254;-51
2022/11/10 05:10:48;;;;;;;16.88;2.15;;;;;;;10.74;100.00;101120.34;8324338;28;20037;-49
2022/11/10 05:15:09;;;;;;;20.98;2.83;;;;;;;10.71;100.00;101116.03;8338645;28;20040;-51
2022/11/10 05:19:30;;;;;;;14.63;2.30;;;;;;;10.77;100.00;101131.72;8334217;28;20094;-51
2022/11/10 05:23:50;;;;;;;10.15;1.83;;;;;;;10.83;100.00;101139.34;8354164;28;20037;-50
2022/11/10 05:28:11;;;;;;;17.70;2.25;;;;;;;10.89;100.00;101144.25;8353956;28;20417;-50
2022/11/10 05:32:32;;;;;;;12.55;2.45;;;;;;;10.68;100.00;101151.44;8353219;28;20029;-50
2022/11/10 05:36:52;;;;;;;16.52;1.83;;;;;;;10.70;100.00;101154.88;8354238;28;20382;-51
2022/11/10 05:41:13;;;;;;;16.70;2.67;;;;;;;9.97;100.00;101159.91;8354480;28;20474;-51
2022/11/10 05:45:33;;;;;;;18.48;3.28;;;;;;;9.60;100.00;101171.00;8351934;28;20041;-50
2022/11/10 05:49:54;;;;;;;16.35;3.72;;;;;;;9.43;100.00;101168.75;8353379;28;20402;-51
2022/11/10 05:54:14;;;;;;;17.63;3.05;;;;;;;9.39;100.00;101178.03;8340394;28;20041;-50
2022/11/10 05:58:35;;;;;;;20.27;4.13;;;;;;;9.45;100.00;101194.63;8367791;28;20315;-50
2022/11/10 06:02:58;;;;;;;20.67;4.03;;;;;;;9.17;100.00;101195.00;8343364;28;20176;-50
2022/11/10 06:07:18;;;;;;;20.35;4.53;;;;;;;9.07;100.00;101203.91;8348018;28;20045;-50
2022/11/10 06:11:39;;;;;;;19.35;3.85;;;;;;;9.05;100.00;101205.84;8352161;28;20057;-51
2022/11/10 06:15:59;;;;;;;13.52;2.72;;;;;;;9.09;100.00;101213.59;8355465;28;20053;-50
2022/11/10 06:20:21;;;;;;;17.60;2.63;;;;;;;9.04;100.00;101220.31;8357274;28;20047;-50
2022/11/10 06:24:41;;;;;;;22.25;2.38;;;;;;;9.00;100.00;101224.22;8358983;28;20048;-50
2022/11/10 06:29:02;;;;;;;18.42;3.25;;;;;;;8.95;100.00;101231.78;8353648;28;20101;-50
2022/11/10 06:33:22;;;;;;;11.68;2.60;;;;;;;8.87;100.00;101234.16;8342702;28;20045;-53
2022/11/10 06:37:43;;;;;;;21.92;2.80;;;;;;;8.72;100.00;101240.69;8355356;28;20445;-50
2022/11/10 06:42:03;;;;;;;20.90;2.95;;;;;;;8.55;100.00;101241.03;8357258;28;20494;-50
2022/11/10 06:46:25;;;;;;;11.85;2.70;;;;;;;8.47;100.00;101240.72;8343157;28;20041;-50
2022/11/10 06:50:45;;;;;;;16.65;2.78;;;;;;;8.36;100.00;101248.72;8357691;28;20037;-54
2022/11/10 06:55:06;;;;;;;14.80;2.42;;;;;;;8.29;100.00;101267.13;8359022;28;20082;-50
2022/11/10 06:59:26;;;;;;;16.20;2.50;;;;;;;8.27;100.00;101249.38;8358580;28;20045;-51
2022/11/10 07:03:47;;;;;;;17.65;2.97;;;;;;;8.58;100.00;101270.47;8359049;28;20057;-52
2022/11/10 07:08:14;;;;;;;28.60;2.55;;;;;;;8.86;100.00;101287.25;8325189;28;20034;-52
2022/11/10 07:12:35;;;;;;;11.32;2.47;;;;;;;8.66;100.00;101284.28;8343878;28;20056;-50
2022/11/10 07:16:55;;;;;;;13.68;1.88;;;;;;;8.81;100.00;101293.94;8354535;28;20037;-51
2022/11/10 07:21:16;;;;;;;14.60;2.50;;;;;;;8.81;100.00;101299.34;8348824;28;20277;-50
2022/11/10 07:25:36;;;;;;;23.98;2.95;;;;;;;9.00;100.00;101305.13;8350431;28;20422;-52
2022/11/10 07:29:57;;;;;;;22.60;3.17;;;;;;;9.38;100.00;101327.44;8354441;28;20033;-51
2022/11/10 07:34:17;;;;;;;13.90;2.53;;;;;;;9.44;100.00;101327.00;8339896;28;20047;-51
2022/11/10 07:38:38;;;;;;;12.90;2.65;;;;;;;9.66;100.00;101335.22;8357641;28;20041;-50
2022/11/10 07:42:59;;;;;;;15.43;2.90;;;;;;;9.64;100.00;101346.13;8357717;28;20552;-52
2022/11/10 07:47:20;;;;;;;20.77;2.92;;;;;;;9.97;100.00;101353.53;8365546;28;20036;-51
2022/11/10 07:51:41;;;;;;;18.15;2.92;;;;;;;10.19;100.00;101358.19;8366319;28;20044;-51
2022/11/10 07:56:02;;;;;;;18.15;3.50;;;;;;;10.41;100.00;101356.44;8355108;28;20055;-51
2022/11/10 08:00:22;;;;;;;11.00;2.78;;;;;;;10.82;100.00;101358.56;8355899;28;20047;-51
2022/11/10 08:04:43;;;;;;;12.93;2.05;;;;;;;11.19;100.00;101358.22;8356352;28;20116;-51
2022/11/10 08:09:03;;;;;;;11.13;2.50;;;;;;;11.66;100.00;101376.91;8357412;28;20044;-52
2022/11/10 08:13:23;;;;;;;13.85;2.28;;;;;;;12.01;100.00;101378.53;8356843;28;20053;-51
2022/11/10 08:17:44;;;;;;;17.38;2.15;;;;;;;12.39;99.93;101386.97;8346082;28;20477;-51
2022/11/10 08:22:04;;;;;;;12.60;1.95;;;;;;;12.80;98.58;101389.66;8356962;28;20040;-50
2022/11/10 08:26:24;;;;;;;17.20;3.13;;;;;;;12.98;96.78;101398.94;8355847;28;20041;-52
2022/11/10 08:30:46;;;;;;;17.58;1.83;;;;;;;13.20;95.92;101402.38;8356512;28;20068;-53
2022/11/10 08:35:07;;;;;;;14.02;2.00;;;;;;;13.36;94.66;101410.03;8356252;28;20040;-54
2022/11/10 08:39:27;;;;;;;12.57;2.65;;;;;;;14.51;89.31;101411.97;8354152;28;20067;-55
2022/11/10 08:43:48;;;;;;;11.52;1.52;;;;;;;16.51;80.43;101415.72;8356190;28;20059;-52
2022/11/10 08:48:13;;;;;;;11.50;1.85;;;;;;;17.61;74.94;101429.50;8354135;28;20053;-51
2022/11/10 08:52:33;;;;;;;13.45;2.45;;;;;;;18.57;71.81;101435.28;8355279;28;20276;-52
2022/11/10 08:56:54;;;;;;;18.17;2.40;;;;;;;19.02;70.42;101435.66;8355095;28;20037;-51
2022/11/10 09:01:14;;;;;;;13.45;2.08;;;;;;;19.66;67.89;101439.28;8355228;28;20045;-51
2022/11/10 09:05:35;;;;;;;14.05;2.08;;;;;;;19.69;67.24;101442.56;8354316;28;20490;-51
2022/11/10 09:09:56;;;;;;;12.88;2.67;;;;;;;19.79;66.94;101442.34;8354002;28;20124;-51
2022/11/10 09:14:16;;;;;;;7.18;1.50;;;;;;;20.17;65.45;101455.25;8354949;28;20052;-52
2022/11/10 09:18:36;;;;;;;10.25;1.88;;;;;;;20.69;64.83;101461.78;8355253;28;20071;-52
2022/11/10 09:23:06;;;;;;;11.48;1.65;;;;;;;20.65;63.85;101460.44;8354733;28;20521;-51
2022/11/10 09:27:27;;;;;;;12.85;2.10;;;;;;;20.63;64.25;101463.38;8354319;28;20036;-51
2022/11/10 09:31:47;;;;;;;13.13;1.85;;;;;;;20.70;64.41;101463.47;8347849;28;20044;-51
2022/11/10 09:36:08;;;;;;;13.63;1.80;;;;;;;20.92;63.54;101451.66;8354145;28;20029;-52
2022/11/10 09:40:54;;;;;;;10.95;1.70;;;;;;;21.07;62.81;101472.66;8354412;28;20041;-51
2022/11/10 09:45:35;;;;;;;14.77;1.88;;;;;;;21.30;62.59;101472.63;8353259;28;20064;-51
2022/11/10 09:49:59;;;;;;;12.75;1.98;;;;;;;21.74;61.36;101465.28;8359987;28;20261;-52
2022/11/10 09:54:39;;;;;;;;;;;;;;;21.80;61.39;101470.03;8361224;28;20048;-52
2022/11/10 09:59:06;;;;;;;11.32;1.90;;;;;;;22.36;59.90;101483.09;8361268;28;19923;-51
2022/11/10 10:03:30;;;;;;;12.00;1.60;;;;;;;22.50;59.08;101486.88;8361086;28;20053;-50
2022/11/10 10:08:01;;;;;;;11.50;1.77;;;;;;;22.70;59.20;101474.19;8326970;28;20091;-53
2022/11/10 10:12:51;;;;;;;10.52;1.45;;;;;;;22.46;58.08;101483.66;8344179;28;20040;-51
2022/11/10 10:17:41;;;;;;;9.20;1.65;;;;;;;23.48;54.80;101490.66;8359923;28;20144;-51
2022/11/10 10:22:33;;;;;;;11.20;1.55;;;;;;;23.83;53.85;101490.47;8359623;28;20029;-52
2022/11/10 10:26:56;;;;;;;9.77;1.73;;;;;;;23.76;53.69;101485.97;8359860;28;20506;-52
2022/11/10 10:31:23;;;;;;;11.17;1.60;;;;;;;23.73;53.24;101483.59;8326443;28;20037;-51
2022/11/10 10:35:47;;;;;;;11.25;1.55;;;;;;;23.50;53.48;101494.03;8326516;28;20502;-51
2022/11/10 10:40:14;;;;;;;15.90;2.05;;;;;;;22.99;53.32;101496.97;8326953;28;20045;-52
2022/11/10 10:44:35;;;;;;;7.18;1.45;;;;;;;23.03;53.60;101492.75;8348575;28;20432;-51
2022/11/10 10:49:11;;;;;;;8.43;1.45;;;;;;;22.80;53.73;101499.53;8325937;28;20378;-51
2022/11/10 10:53:43;;;;;;;7.07;1.17;;;;;;;23.33;53.17;101496.28;8325741;28;20050;-51
2022/11/10 10:58:17;;;;;;;12.82;1.50;;;;;;;23.01;53.07;101492.13;8334118;28;20571;-52
2022/11/10 11:02:38;;;;;;;9.45;1.20;;;;;;;21.34;55.79;101494.09;8357306;28;20030;-51
2022/11/10 11:07:03;;;;;;;6.32;0.88;;;;;;;22.43;54.26;101484.03;8357848;28;20387;-50
2022/11/10 11:11:31;;;;;;;6.10;1.08;;;;;;;22.46;54.32;101480.03;8358231;28;20087;-51
2022/11/10 11:16:00;;;;;;;8.98;1.02;;;;;;;23.48;51.51;101490.66;8357862;28;20040;-51
2022/11/10 11:20:29;;;;;;;5.75;1.35;;;;;;;23.76;50.76;101494.25;8358361;28;20033;-53
2022/11/10 11:25:06;;;;;;;7.65;1.10;;;;;;;23.79;51.12;101499.38;8358366;28;20029;-51
2022/11/10 11:29:57;;;;;;;43.58;9.38;;;;;;;23.92;50.68;101502.22;8357590;28;20594;-51
2022/11/10 11:34:31;;;;;;;7.80;1.10;;;;;;;23.80;51.62;101517.66;8349039;28;20045;-51
2022/11/10 11:39:06;;;;;;;7.28;1.45;;;;;;;23.20;52.45;101527.31;8357278;28;20036;-52
2022/11/10 11:43:54;;;;;;;5.68;1.25;;;;;;;23.38;51.55;101539.81;8358082;28;20535;-51
2022/11/10 11:48:42;;;;;;;9.55;1.88;;;;;;;23.56;51.50;101542.94;8346072;28;20179;-52
2022/11/10 11:53:27;;;;;;;7.75;1.17;;;;;;;22.62;53.39;101544.09;8357326;28;20463;-54
2022/11/10 11:58:18;;;;;;;7.28;0.90;;;;;;;21.67;55.03;101560.66;8357099;28;20037;-52
2022/11/10 12:07:28;;;;;;;9.07;1.17;;;;;;;22.83;53.76;101552.41;8403571;27;20469;-54
2022/11/10 12:12:28;;;;;;;6.55;0.82;;;;;;;22.67;54.08;101552.66;8400820;28;20036;-51
2022/11/10 12:17:15;;;;;;;7.70;1.35;;;;;;;22.40;54.00;101556.06;8382287;28;20044;-54
2022/11/10 12:21:45;;;;;;;5.78;1.45;;;;;;;22.46;53.47;101566.34;8416059;28;20541;-54
2022/11/10 12:30:41;;;;;;;5.15;1.02;;;;;;;22.39;53.01;101564.53;8347280;27;20386;-53
2022/11/10 12:35:13;;;;;;;4.88;1.42;;;;;;;22.53;53.00;101563.69;8322176;28;20037;-52
2022/11/10 12:39:48;;;;;;;4.88;0.93;;;;;;;22.46;52.58;101558.06;8316988;28;20038;-52
2022/11/10 12:44:38;;;;;;;13.50;1.25;;;;;;;21.65;53.34;101559.16;8317555;28;20398;-52
2022/11/10 12:49:15;;;;;;;4.20;0.70;;;;;;;20.31;56.14;101572.59;8312751;28;20215;-51
2022/11/10 12:53:39;;;;;;;6.43;0.95;;;;;;;19.02;59.73;101567.22;8316614;28;20037;-51
2022/11/10 12:58:04;;;;;;;5.80;0.82;;;;;;;18.36;60.87;101571.78;8324348;28;20041;-51
2022/11/10 13:02:44;;;;;;;6.97;1.00;;;;;;;18.17;61.52;101569.31;8343400;28;20127;-51
2022/11/10 13:07:05;;;;;;;6.53;0.88;;;;;;;18.04;62.28;101568.91;8315957;28;20129;-51
2022/11/10 13:11:30;;;;;;;6.75;0.90;;;;;;;18.00;62.32;101578.50;8312206;28;20045;-52
2022/11/10 13:15:55;;;;;;;7.57;0.80;;;;;;;17.95;62.62;101590.91;8315473;28;20601;-51
2022/11/10 13:24:51;;;;;;;6.03;0.60;;;;;;;17.84;61.46;101594.78;8351987;27;20396;-51
2022/11/10 13:29:46;;;;;;;7.10;1.08;;;;;;;17.69;62.55;101585.47;8349872;28;20041;-54
2022/11/10 13:34:10;;;;;;;5.28;1.20;;;;;;;17.67;63.06;101598.44;8349930;28;20118;-54
2022/11/10 13:43:03;;;;;;;7.70;0.80;;;;;;;17.66;63.04;101596.75;8370685;28;20448;-53
2022/11/10 13:47:55;;;;;;;7.35;0.70;;;;;;;17.72;62.91;101601.56;8376143;28;20091;-51
2022/11/10 13:52:21;;;;;;;6.57;1.02;;;;;;;17.53;62.74;101596.28;8378164;28;20406;-49
2022/11/10 13:57:11;;;;;;;4.43;0.70;;;;;;;17.40;63.07;101606.72;8383990;28;20460;-53
2022/11/10 14:01:31;;;;;;;5.20;1.02;;;;;;;17.39;63.50;101605.03;8347761;28;20051;-50
2022/11/10 14:06:04;;;;;;;7.65;0.90;;;;;;;17.34;62.85;101597.31;8365626;28;20037;-51
2022/11/10 14:10:37;;;;;;;10.02;0.80;;;;;;;17.22;63.72;101611.34;8375289;28;20038;-53
2022/11/10 14:15:05;;;;;;;4.33;0.50;;;;;;;17.15;63.55;101613.00;8356291;28;20128;-53
2022/11/10 14:19:37;;;;;;;4.18;0.57;;;;;;;17.20;63.56;101616.13;8378578;28;20125;-51
2022/11/10 14:24:21;;;;;;;4.90;0.63;;;;;;;17.08;63.80;101606.44;8394660;28;20352;-50
2022/11/10 14:28:41;;;;;;;6.75;1.10;;;;;;;17.08;63.97;101595.53;8398634;28;20037;-50
2022/11/10 14:33:08;;;;;;;5.43;0.63;;;;;;;16.94;64.74;101602.38;8378593;28;20524;-51
2022/11/10 14:37:29;;;;;;;7.47;0.93;;;;;;;16.79;65.67;101616.72;8378427;28;20036;-50
2022/11/10 14:41:50;;;;;;;4.00;0.70;;;;;;;16.72;65.64;101607.41;8378701;28;20704;-53
2022/11/10 14:46:13;;;;;;;4.53;0.70;;;;;;;16.59;66.52;101609.66;8377548;28;20041;-51
2022/11/10 14:50:34;;;;;;;5.47;0.90;;;;;;;16.49;66.68;101611.56;8370865;28;20044;-52
2022/11/10 14:54:55;;;;;;;2.85;0.90;;;;;;;16.31;67.44;101599.72;8357093;28;20040;-50
2022/11/10 14:59:17;;;;;;;7.90;1.10;;;;;;;16.12;68.22;101599.78;8356255;28;20041;-50
2022/11/10 15:03:40;;;;;;;5.18;0.88;;;;;;;15.93;69.65;101610.78;8355229;28;20083;-52
2022/11/10 15:08:02;;;;;;;3.67;0.63;;;;;;;15.81;70.12;101609.22;8330733;28;20124;-49
2022/11/10 15:12:26;;;;;;;6.35;1.00;;;;;;;15.63;71.10;101617.31;8319367;28;20040;-49
2022/11/10 15:17:04;;;;;;;16.50;1.20;;;;;;;15.43;72.11;101616.47;8351701;28;20048;-48
2022/11/10 15:21:32;;;;;;;5.18;0.60;;;;;;;15.49;71.96;101607.72;8322607;28;20037;-50
2022/11/10 15:25:53;;;;;;;4.85;0.98;;;;;;;15.52;71.47;101601.97;8347669;28;20430;-50
2022/11/10 15:30:22;;;;;;;6.90;1.23;;;;;;;15.66;69.79;101598.81;8330134;28;20033;-48
2022/11/10 15:34:44;;;;;;;4.97;0.98;;;;;;;15.64;69.30;101605.41;8348412;28;20116;-49
2022/11/10 15:39:18;;;;;;;12.50;1.20;;;;;;;15.54;69.35;101605.44;8351629;28;20033;-49
2022/11/10 15:43:39;;;;;;;6.07;1.05;;;;;;;15.34;69.94;101613.75;8352229;28;20052;-51
2022/11/10 15:48:00;;;;;;;8.05;0.90;;;;;;;15.41;69.07;101615.75;8329976;28;20050;-51
2022/11/10 15:52:22;;;;;;;6.93;0.98;;;;;;;15.27;69.77;101616.19;8322475;28;20510;-50
2022/11/10 15:56:42;;;;;;;6.63;0.95;;;;;;;15.12;70.21;101624.91;8330015;28;20040;-49
2022/11/10 16:01:03;;;;;;;5.93;1.42;;;;;;;15.09;73.62;101625.19;8344794;28;20369;-50
2022/11/10 16:05:23;;;;;;;7.88;1.30;;;;;;;14.80;77.71;101640.66;8350756;28;20522;-49
2022/11/10 16:09:44;;;;;;;6.40;1.60;;;;;;;14.77;79.55;101633.63;8354061;28;20047;-50
2022/11/10 16:14:05;;;;;;;7.30;1.65;;;;;;;14.77;80.61;101630.91;8343836;28;20166;-50
2022/11/10 16:18:28;;;;;;;7.68;1.75;;;;;;;14.60;81.45;101631.56;8321469;28;20044;-50
2022/11/10 16:22:49;;;;;;;7.10;2.70;;;;;;;14.48;82.28;101651.72;8313449;28;20120;-50
2022/11/10 16:27:13;;;;;;;10.90;3.17;;;;;;;14.28;83.47;101663.56;8321514;28;20045;-49
2022/11/10 16:31:33;;;;;;;;;;;;;;;14.25;83.78;101671.97;8352124;28;22170;-52
2022/11/10 16:35:55;;;;;;;8.05;2.00;;;;;;;14.26;83.55;101673.69;8320227;28;19921;-51
2022/11/10 16:40:18;;;;;;;10.43;1.80;;;;;;;14.19;83.81;101683.38;8325143;28;20119;-49
2022/11/10 16:44:38;;;;;;;3.15;1.73;;;;;;;14.08;84.50;101697.03;8320410;28;20060;-50
2022/11/10 16:49:02;;;;;;;4.60;1.63;;;;;;;14.05;84.46;101713.63;8320979;28;20033;-49
2022/11/10 16:53:26;;;;;;;7.35;1.70;;;;;;;13.86;85.01;101718.94;8317486;28;20376;-50
2022/11/10 16:57:47;;;;;;;5.43;1.95;;;;;;;13.68;85.63;101731.38;8313425;28;20033;-48
2022/11/10 17:02:29;;;;;;;7.25;1.73;;;;;;;13.59;86.18;101743.03;8355456;28;20043;-53
2022/11/10 17:06:50;;;;;;;10.80;1.67;;;;;;;13.38;86.78;101747.56;8333080;28;20131;-49
2022/11/10 17:11:11;;;;;;;8.93;1.98;;;;;;;13.27;87.44;101747.63;8358732;28;20072;-50
2022/11/10 17:15:34;;;;;;;4.88;1.55;;;;;;;13.15;87.99;101748.63;8350468;28;20033;-50
2022/11/10 17:19:54;;;;;;;6.07;1.80;;;;;;;13.06;88.21;101763.84;8346695;28;20410;-49
2022/11/10 17:24:16;;;;;;;5.60;1.38;;;;;;;13.03;88.47;101765.94;8355169;28;20105;-49
2022/11/10 17:28:36;;;;;;;4.55;1.70;;;;;;;12.87;89.09;101768.16;8358748;28;20064;-51
2022/11/10 17:32:58;;;;;;;12.13;1.83;;;;;;;12.80;89.26;101753.31;8333465;28;20128;-50
2022/11/10 17:37:18;;;;;;;8.38;2.13;;;;;;;12.72;89.67;101766.69;8379924;28;20453;-48
2022/11/10 17:41:38;;;;;;;8.07;1.50;;;;;;;12.68;89.16;101770.59;8384363;28;21012;-49
2022/11/10 17:45:59;;;;;;;6.63;2.05;;;;;;;12.71;88.95;101764.94;8384143;28;20045;-48
2022/11/10 17:50:22;;;;;;;7.75;1.88;;;;;;;12.66;88.78;101788.88;8367331;28;20047;-48
2022/11/10 17:54:43;;;;;;;4.70;1.50;;;;;;;12.63;88.92;101792.66;8367781;28;20033;-50
2022/11/10 17:59:04;;;;;;;4.30;2.05;;;;;;;12.57;89.13;101822.16;8354152;28;20041;-49
2022/11/10 18:03:24;;;;;;;6.97;2.65;;;;;;;12.37;90.43;101809.28;8343214;28;20037;-49
2022/11/10 18:07:48;;;;;;;7.32;2.30;;;;;;;12.20;91.11;101809.78;8351278;28;20033;-51
2022/11/10 18:12:09;;;;;;;7.35;1.95;;;;;;;12.07;91.86;101811.72;8339938;28;20036;-49
2022/11/10 18:16:29;;;;;;;9.02;2.30;;;;;;;11.98;92.06;101818.69;8317887;28;20033;-49
2022/11/10 18:20:50;;;;;;;7.00;3.00;;;;;;;11.88;92.48;101807.69;8344300;28;20037;-48
2022/11/10 18:25:10;;;;;;;10.25;3.75;;;;;;;11.82;92.23;101802.75;8317226;28;20103;-49
2022/11/10 18:29:30;;;;;;;8.75;3.15;;;;;;;11.78;92.70;101814.78;8343576;28;20037;-52
2022/11/10 18:33:53;;;;;;;12.82;2.97;;;;;;;11.77;92.85;101817.59;8355582;28;20045;-49
2022/11/10 18:38:13;;;;;;;10.00;3.22;;;;;;;11.75;92.78;101815.00;8356733;28;20506;-48
2022/11/10 18:42:34;;;;;;;9.70;2.55;;;;;;;11.78;92.31;101814.78;8354602;28;20051;-48
2022/11/10 18:46:54;;;;;;;9.15;3.33;;;;;;;11.67;92.71;101809.34;8350345;28;20038;-50
2022/11/10 18:51:15;;;;;;;10.93;4.18;;;;;;;11.62;93.29;101803.38;8332295;28;20037;-51
2022/11/10 18:55:35;;;;;;;6.68;2.95;;;;;;;11.52;93.40;101799.63;8330863;28;20041;-48
2022/11/10 18:59:56;;;;;;;9.45;4.28;;;;;;;11.11;95.59;101815.38;8322064;28;20526;-48
2022/11/10 19:04:16;;;;;;;10.52;5.60;;;;;;;10.92;97.14;101808.72;8339493;28;20485;-48
2022/11/10 19:08:38;;;;;;;15.40;9.60;;;;;;;10.93;97.43;101800.47;8356298;28;20063;-49
2022/11/10 19:12:59;;;;;;;26.52;15.82;;;;;;;10.98;97.22;101811.81;8361768;28;20048;-48
2022/11/10 19:17:20;;;;;;;14.13;7.78;;;;;;;10.98;97.54;101824.50;8317380;28;20056;-51
2022/11/10 19:21:40;;;;;;;13.98;8.35;;;;;;;10.83;97.59;101810.22;8323236;28;20039;-48
2022/11/10 19:26:05;;;;;;;11.25;5.78;;;;;;;10.78;98.47;101823.22;8320558;28;20132;-49
2022/11/10 19:30:25;;;;;;;8.63;4.22;;;;;;;10.63;98.60;101837.84;8349323;28;20478;-52
2022/11/10 19:34:45;;;;;;;16.38;4.18;;;;;;;10.24;100.00;101832.53;8347723;28;20037;-49
2022/11/10 19:39:08;;;;;;;11.23;3.97;;;;;;;10.04;100.00;101830.31;8354724;28;20064;-49
2022/11/10 19:43:30;;;;;;;14.18;4.80;;;;;;;10.03;100.00;101828.56;8354280;28;20054;-48
2022/11/10 19:47:50;;;;;;;16.73;4.80;;;;;;;10.04;100.00;101830.31;8354327;28;20402;-48
2022/11/10 19:52:10;;;;;;;15.68;5.10;;;;;;;10.10;100.00;101840.72;8355244;28;20128;-49
2022/11/10 19:56:34;;;;;;;14.80;7.00;;;;;;;10.03;100.00;101845.66;8353685;28;20405;-49
2022/11/10 20:00:55;;;;;;;19.90;7.38;;;;;;;9.94;100.00;101840.88;8353117;28;20044;-49
2022/11/10 20:05:16;;;;;;;12.38;5.40;;;;;;;10.01;100.00;101835.94;8347714;28;20034;-49
2022/11/10 20:09:36;;;;;;;14.35;5.35;;;;;;;10.10;100.00;101846.13;8332449;28;20038;-48
2022/11/10 20:13:59;;;;;;;8.70;4.65;;;;;;;10.11;100.00;101846.97;8340450;28;20164;-48
2022/11/10 20:18:19;;;;;;;8.70;3.38;;;;;;;10.11;100.00;101838.88;8351085;28;20036;-49
2022/11/10 20:22:40;;;;;;;10.63;4.20;;;;;;;10.19;100.00;101840.09;8342614;28;20037;-49
2022/11/10 20:27:00;;;;;;;8.07;4.43;;;;;;;10.25;100.00;101834.28;8324357;28;20107;-48
2022/11/10 20:31:24;;;;;;;11.23;4.75;;;;;;;10.29;100.00;101840.31;8327720;28;20193;-50
2022/11/10 20:35:45;;;;;;;;;;;;;;;10.32;100.00;101838.28;8326646;28;20034;-50
2022/11/10 20:40:06;;;;;;;12.38;4.75;;;;;;;10.32;100.00;101846.38;8326641;28;20436;-49